sensor_id;sensor_type;location;lat;lon;timestamp;temperature;humidity
4964;DHT22;2497;47.410;9.740;2023-04-09T00:01:41;6.00;99.90
4964;DHT22;2497;47.410;9.740;2023-04-09T00:04:08;5.90;99.90
4964;DHT22;2497;47.410;9.740;2023-04-09T00:06:35;6.00;99.90
4964;DHT22;2497;47.410;9.740;2023-04-09T00:09:02;5.90;99.90
4964;DHT22;2497;47.410;9.740;2023-04-09T00:11:29;5.90;99.90
4964;DHT22;2497;47.410;9.740;2023-04-09T00:13:57;5.90;99.90
4964;DHT22;2497;47.410;9.740;2023-04-09T00:16:24;5.90;99.90
4964;DHT22;2497;47.410;9.740;2023-04-09T00:18:53;5.80;99.90
4964;DHT22;2497;47.410;9.740;2023-04-09T00:21:21;5.80;99.90
4964;DHT22;2497;47.410;9.740;2023-04-09T00:23:48;5.80;99.90
4964;DHT22;2497;47.410;9.740;2023-04-09T00:26:15;5.80;99.90
4964;DHT22;2497;47.410;9.740;2023-04-09T00:28:42;5.80;99.90
4964;DHT22;2497;47.410;9.740;2023-04-09T00:31:09;5.80;99.90
4964;DHT22;2497;47.410;9.740;2023-04-09T00:33:37;5.80;99.90
4964;DHT22;2497;47.410;9.740;2023-04-09T00:36:05;5.80;99.90
4964;DHT22;2497;47.410;9.740;2023-04-09T00:38:33;5.80;99.90
4964;DHT22;2497;47.410;9.740;2023-04-09T00:41:00;5.80;99.90
4964;DHT22;2497;47.410;9.740;2023-04-09T00:43:27;5.70;99.90
4964;DHT22;2497;47.410;9.740;2023-04-09T00:45:55;5.80;99.90
4964;DHT22;2497;47.410;9.740;2023-04-09T00:48:22;5.80;99.90
4964;DHT22;2497;47.410;9.740;2023-04-09T00:50:49;5.70;99.90
4964;DHT22;2497;47.410;9.740;2023-04-09T00:53:18;5.70;99.90
4964;DHT22;2497;47.410;9.740;2023-04-09T00:55:46;5.70;99.90
4964;DHT22;2497;47.410;9.740;2023-04-09T00:58:13;5.70;99.90
4964;DHT22;2497;47.410;9.740;2023-04-09T01:00:40;5.70;99.90
4964;DHT22;2497;47.410;9.740;2023-04-09T01:03:07;5.70;99.90
4964;DHT22;2497;47.410;9.740;2023-04-09T01:05:39;5.70;99.90
4964;DHT22;2497;47.410;9.740;2023-04-09T01:08:14;5.60;99.90
4964;DHT22;2497;47.410;9.740;2023-04-09T01:10:50;5.60;99.90
4964;DHT22;2497;47.410;9.740;2023-04-09T01:13:27;5.50;99.90
4964;DHT22;2497;47.410;9.740;2023-04-09T01:15:59;5.50;99.90
4964;DHT22;2497;47.410;9.740;2023-04-09T01:18:30;5.50;99.90
4964;DHT22;2497;47.410;9.740;2023-04-09T01:21:01;5.50;99.90
4964;DHT22;2497;47.410;9.740;2023-04-09T01:23:34;5.50;99.90
4964;DHT22;2497;47.410;9.740;2023-04-09T01:26:13;5.60;99.90
4964;DHT22;2497;47.410;9.740;2023-04-09T01:28:47;5.60;99.90
4964;DHT22;2497;47.410;9.740;2023-04-09T01:31:17;5.60;99.90
4964;DHT22;2497;47.410;9.740;2023-04-09T01:33:46;5.60;99.90
4964;DHT22;2497;47.410;9.740;2023-04-09T01:36:14;5.60;99.90
4964;DHT22;2497;47.410;9.740;2023-04-09T01:38:42;5.60;99.90
4964;DHT22;2497;47.410;9.740;2023-04-09T01:41:14;5.60;99.90
4964;DHT22;2497;47.410;9.740;2023-04-09T01:43:42;5.60;99.90
4964;DHT22;2497;47.410;9.740;2023-04-09T01:46:12;5.60;99.90
4964;DHT22;2497;47.410;9.740;2023-04-09T01:48:40;5.60;99.90
4964;DHT22;2497;47.410;9.740;2023-04-09T01:51:07;5.60;99.90
4964;DHT22;2497;47.410;9.740;2023-04-09T01:53:35;5.60;99.90
4964;DHT22;2497;47.410;9.740;2023-04-09T01:56:02;5.60;99.90
4964;DHT22;2497;47.410;9.740;2023-04-09T01:58:30;5.60;99.90
4964;DHT22;2497;47.410;9.740;2023-04-09T02:01:02;5.60;99.90
4964;DHT22;2497;47.410;9.740;2023-04-09T02:03:37;5.70;99.90
4964;DHT22;2497;47.410;9.740;2023-04-09T02:06:16;5.70;99.90
4964;DHT22;2497;47.410;9.740;2023-04-09T02:08:51;5.60;99.90
4964;DHT22;2497;47.410;9.740;2023-04-09T02:11:20;5.60;99.90
4964;DHT22;2497;47.410;9.740;2023-04-09T02:13:49;5.60;99.90
4964;DHT22;2497;47.410;9.740;2023-04-09T02:16:20;5.60;99.90
4964;DHT22;2497;47.410;9.740;2023-04-09T02:18:52;5.60;99.90
4964;DHT22;2497;47.410;9.740;2023-04-09T02:21:21;5.70;99.90
4964;DHT22;2497;47.410;9.740;2023-04-09T02:23:48;5.60;99.90
4964;DHT22;2497;47.410;9.740;2023-04-09T02:26:15;5.60;99.90
4964;DHT22;2497;47.410;9.740;2023-04-09T02:28:42;5.50;99.90
4964;DHT22;2497;47.410;9.740;2023-04-09T02:31:09;5.50;99.90
4964;DHT22;2497;47.410;9.740;2023-04-09T02:33:37;5.40;99.90
4964;DHT22;2497;47.410;9.740;2023-04-09T02:36:06;5.40;99.90
4964;DHT22;2497;47.410;9.740;2023-04-09T02:38:33;5.50;99.90
4964;DHT22;2497;47.410;9.740;2023-04-09T02:41:00;5.50;99.90
4964;DHT22;2497;47.410;9.740;2023-04-09T02:43:27;5.50;99.90
4964;DHT22;2497;47.410;9.740;2023-04-09T02:45:54;5.40;99.90
4964;DHT22;2497;47.410;9.740;2023-04-09T02:48:21;5.40;99.90
4964;DHT22;2497;47.410;9.740;2023-04-09T02:50:48;5.40;99.90
4964;DHT22;2497;47.410;9.740;2023-04-09T02:53:17;5.30;99.90
4964;DHT22;2497;47.410;9.740;2023-04-09T02:55:46;5.30;99.90
4964;DHT22;2497;47.410;9.740;2023-04-09T02:58:13;5.20;99.90
4964;DHT22;2497;47.410;9.740;2023-04-09T03:00:40;5.20;99.90
4964;DHT22;2497;47.410;9.740;2023-04-09T03:03:07;5.20;99.90
4964;DHT22;2497;47.410;9.740;2023-04-09T03:05:34;5.00;99.90
4964;DHT22;2497;47.410;9.740;2023-04-09T03:08:02;5.00;99.90
4964;DHT22;2497;47.410;9.740;2023-04-09T03:10:31;4.90;99.90
4964;DHT22;2497;47.410;9.740;2023-04-09T03:12:58;4.90;99.90
4964;DHT22;2497;47.410;9.740;2023-04-09T03:15:25;4.90;99.90
4964;DHT22;2497;47.410;9.740;2023-04-09T03:17:52;5.00;99.90
4964;DHT22;2497;47.410;9.740;2023-04-09T03:20:19;5.00;99.90
4964;DHT22;2497;47.410;9.740;2023-04-09T03:22:46;5.00;99.90
4964;DHT22;2497;47.410;9.740;2023-04-09T03:25:14;5.20;99.90
4964;DHT22;2497;47.410;9.740;2023-04-09T03:27:42;5.20;99.90
4964;DHT22;2497;47.410;9.740;2023-04-09T03:30:10;5.20;99.90
4964;DHT22;2497;47.410;9.740;2023-04-09T03:32:37;5.20;99.90
4964;DHT22;2497;47.410;9.740;2023-04-09T03:35:05;5.10;99.90
4964;DHT22;2497;47.410;9.740;2023-04-09T03:37:32;5.20;99.90
4964;DHT22;2497;47.410;9.740;2023-04-09T03:39:59;5.20;99.90
4964;DHT22;2497;47.410;9.740;2023-04-09T03:42:26;5.30;99.90
4964;DHT22;2497;47.410;9.740;2023-04-09T03:44:54;5.30;99.90
4964;DHT22;2497;47.410;9.740;2023-04-09T03:47:21;5.30;99.90
4964;DHT22;2497;47.410;9.740;2023-04-09T03:49:49;5.40;99.90
4964;DHT22;2497;47.410;9.740;2023-04-09T03:52:16;5.40;99.90
4964;DHT22;2497;47.410;9.740;2023-04-09T03:54:43;5.40;99.90
4964;DHT22;2497;47.410;9.740;2023-04-09T03:57:10;5.40;99.90
4964;DHT22;2497;47.410;9.740;2023-04-09T03:59:37;5.50;99.90
4964;DHT22;2497;47.410;9.740;2023-04-09T04:02:06;5.50;99.90
4964;DHT22;2497;47.410;9.740;2023-04-09T04:04:33;5.50;99.90
4964;DHT22;2497;47.410;9.740;2023-04-09T04:07:02;5.50;99.90
4964;DHT22;2497;47.410;9.740;2023-04-09T04:09:29;5.40;99.90
4964;DHT22;2497;47.410;9.740;2023-04-09T04:11:56;5.50;99.90
4964;DHT22;2497;47.410;9.740;2023-04-09T04:14:23;5.60;99.90
4964;DHT22;2497;47.410;9.740;2023-04-09T04:16:50;5.50;99.90
4964;DHT22;2497;47.410;9.740;2023-04-09T04:19:19;5.50;99.90
4964;DHT22;2497;47.410;9.740;2023-04-09T04:21:46;5.40;99.90
4964;DHT22;2497;47.410;9.740;2023-04-09T04:24:13;5.50;99.90
4964;DHT22;2497;47.410;9.740;2023-04-09T04:26:40;5.50;99.90
4964;DHT22;2497;47.410;9.740;2023-04-09T04:29:07;5.50;99.90
4964;DHT22;2497;47.410;9.740;2023-04-09T04:31:35;5.50;99.90
4964;DHT22;2497;47.410;9.740;2023-04-09T04:34:02;5.50;99.90
4964;DHT22;2497;47.410;9.740;2023-04-09T04:36:30;5.50;99.90
4964;DHT22;2497;47.410;9.740;2023-04-09T04:38:57;5.40;99.90
4964;DHT22;2497;47.410;9.740;2023-04-09T04:41:25;5.40;99.90
4964;DHT22;2497;47.410;9.740;2023-04-09T04:43:52;5.50;99.90
4964;DHT22;2497;47.410;9.740;2023-04-09T04:46:19;5.40;99.90
4964;DHT22;2497;47.410;9.740;2023-04-09T04:48:46;5.50;99.90
4964;DHT22;2497;47.410;9.740;2023-04-09T04:51:13;5.50;99.90
4964;DHT22;2497;47.410;9.740;2023-04-09T04:53:42;5.50;99.90
4964;DHT22;2497;47.410;9.740;2023-04-09T04:56:12;5.50;99.90
4964;DHT22;2497;47.410;9.740;2023-04-09T04:58:40;5.50;99.90
4964;DHT22;2497;47.410;9.740;2023-04-09T05:01:07;5.50;99.90
4964;DHT22;2497;47.410;9.740;2023-04-09T05:03:34;5.50;99.90
4964;DHT22;2497;47.410;9.740;2023-04-09T05:06:01;5.50;99.90
4964;DHT22;2497;47.410;9.740;2023-04-09T05:08:28;5.40;99.90
4964;DHT22;2497;47.410;9.740;2023-04-09T05:10:57;5.40;99.90
4964;DHT22;2497;47.410;9.740;2023-04-09T05:13:25;5.40;99.90
4964;DHT22;2497;47.410;9.740;2023-04-09T05:15:52;5.40;99.90
4964;DHT22;2497;47.410;9.740;2023-04-09T05:18:19;5.40;99.90
4964;DHT22;2497;47.410;9.740;2023-04-09T05:20:47;5.40;99.90
4964;DHT22;2497;47.410;9.740;2023-04-09T05:23:14;5.50;99.90
4964;DHT22;2497;47.410;9.740;2023-04-09T05:25:41;5.50;99.90
4964;DHT22;2497;47.410;9.740;2023-04-09T05:28:10;5.50;99.90
4964;DHT22;2497;47.410;9.740;2023-04-09T05:30:38;5.50;99.90
4964;DHT22;2497;47.410;9.740;2023-04-09T05:38:16;5.60;99.90
4964;DHT22;2497;47.410;9.740;2023-04-09T05:40:48;5.70;99.90
4964;DHT22;2497;47.410;9.740;2023-04-09T05:43:20;5.70;99.90
4964;DHT22;2497;47.410;9.740;2023-04-09T05:45:50;5.70;99.90
4964;DHT22;2497;47.410;9.740;2023-04-09T05:48:28;5.70;99.90
4964;DHT22;2497;47.410;9.740;2023-04-09T06:01:21;6.10;99.90
4964;DHT22;2497;47.410;9.740;2023-04-09T06:03:49;6.20;99.90
4964;DHT22;2497;47.410;9.740;2023-04-09T06:06:17;6.20;99.90
4964;DHT22;2497;47.410;9.740;2023-04-09T06:14:08;6.30;99.90
4964;DHT22;2497;47.410;9.740;2023-04-09T06:16:39;6.40;99.90
4964;DHT22;2497;47.410;9.740;2023-04-09T06:19:10;6.50;99.90
4964;DHT22;2497;47.410;9.740;2023-04-09T06:21:38;6.50;99.90
4964;DHT22;2497;47.410;9.740;2023-04-09T06:24:07;6.60;99.90
4964;DHT22;2497;47.410;9.740;2023-04-09T06:26:35;6.60;99.90
4964;DHT22;2497;47.410;9.740;2023-04-09T06:29:02;6.70;99.90
4964;DHT22;2497;47.410;9.740;2023-04-09T06:31:29;6.70;99.90
4964;DHT22;2497;47.410;9.740;2023-04-09T06:33:59;6.80;99.90
4964;DHT22;2497;47.410;9.740;2023-04-09T06:36:32;7.00;99.90
4964;DHT22;2497;47.410;9.740;2023-04-09T06:39:02;7.20;99.90
4964;DHT22;2497;47.410;9.740;2023-04-09T06:41:30;7.50;99.90
4964;DHT22;2497;47.410;9.740;2023-04-09T06:43:57;7.80;99.90
4964;DHT22;2497;47.410;9.740;2023-04-09T06:46:24;8.20;99.90
4964;DHT22;2497;47.410;9.740;2023-04-09T06:48:52;8.00;99.90
4964;DHT22;2497;47.410;9.740;2023-04-09T06:51:21;7.80;99.90
4964;DHT22;2497;47.410;9.740;2023-04-09T06:53:48;7.70;99.90
4964;DHT22;2497;47.410;9.740;2023-04-09T06:56:15;8.10;99.90
4964;DHT22;2497;47.410;9.740;2023-04-09T06:58:44;9.00;99.90
4964;DHT22;2497;47.410;9.740;2023-04-09T07:01:15;9.70;99.90
4964;DHT22;2497;47.410;9.740;2023-04-09T07:03:42;9.90;99.90
4964;DHT22;2497;47.410;9.740;2023-04-09T07:06:10;9.80;99.90
4964;DHT22;2497;47.410;9.740;2023-04-09T07:08:39;10.10;99.90
4964;DHT22;2497;47.410;9.740;2023-04-09T07:11:06;10.20;99.90
4964;DHT22;2497;47.410;9.740;2023-04-09T07:13:33;10.50;99.90
4964;DHT22;2497;47.410;9.740;2023-04-09T07:16:01;10.30;99.90
4964;DHT22;2497;47.410;9.740;2023-04-09T07:18:28;10.70;99.90
4964;DHT22;2497;47.410;9.740;2023-04-09T07:20:56;10.60;99.90
4964;DHT22;2497;47.410;9.740;2023-04-09T07:23:23;10.30;99.90
4964;DHT22;2497;47.410;9.740;2023-04-09T07:25:52;10.00;99.90
4964;DHT22;2497;47.410;9.740;2023-04-09T07:28:19;9.70;99.90
4964;DHT22;2497;47.410;9.740;2023-04-09T07:30:46;10.30;99.90
4964;DHT22;2497;47.410;9.740;2023-04-09T07:33:13;10.60;99.90
4964;DHT22;2497;47.410;9.740;2023-04-09T07:35:41;10.60;99.90
4964;DHT22;2497;47.410;9.740;2023-04-09T07:38:08;10.10;99.90
4964;DHT22;2497;47.410;9.740;2023-04-09T07:40:35;9.70;99.90
4964;DHT22;2497;47.410;9.740;2023-04-09T07:43:04;9.60;99.90
4964;DHT22;2497;47.410;9.740;2023-04-09T07:45:32;9.60;99.90
4964;DHT22;2497;47.410;9.740;2023-04-09T07:47:59;9.60;99.90
4964;DHT22;2497;47.410;9.740;2023-04-09T07:50:26;9.70;99.90
4964;DHT22;2497;47.410;9.740;2023-04-09T07:52:53;9.90;99.90
4964;DHT22;2497;47.410;9.740;2023-04-09T07:55:21;10.70;99.90
4964;DHT22;2497;47.410;9.740;2023-04-09T07:57:48;11.40;99.90
4964;DHT22;2497;47.410;9.740;2023-04-09T08:00:18;11.20;99.90
4964;DHT22;2497;47.410;9.740;2023-04-09T08:02:45;11.20;99.90
4964;DHT22;2497;47.410;9.740;2023-04-09T08:05:12;10.80;99.90
4964;DHT22;2497;47.410;9.740;2023-04-09T08:07:43;10.40;99.90
4964;DHT22;2497;47.410;9.740;2023-04-09T08:10:10;10.10;99.90
4964;DHT22;2497;47.410;9.740;2023-04-09T08:12:39;9.90;99.90
4964;DHT22;2497;47.410;9.740;2023-04-09T08:15:13;9.60;99.90
4964;DHT22;2497;47.410;9.740;2023-04-09T08:17:42;9.40;99.90
4964;DHT22;2497;47.410;9.740;2023-04-09T08:20:11;9.30;99.90
4964;DHT22;2497;47.410;9.740;2023-04-09T08:22:39;9.30;99.90
4964;DHT22;2497;47.410;9.740;2023-04-09T08:25:07;9.40;99.90
4964;DHT22;2497;47.410;9.740;2023-04-09T08:30:11;9.50;99.90
4964;DHT22;2497;47.410;9.740;2023-04-09T08:32:40;9.60;99.90
4964;DHT22;2497;47.410;9.740;2023-04-09T08:35:11;10.00;99.90
4964;DHT22;2497;47.410;9.740;2023-04-09T08:37:39;10.50;99.90
4964;DHT22;2497;47.410;9.740;2023-04-09T08:40:07;10.90;99.90
4964;DHT22;2497;47.410;9.740;2023-04-09T08:42:41;12.00;99.90
4964;DHT22;2497;47.410;9.740;2023-04-09T08:45:10;12.50;99.90
4964;DHT22;2497;47.410;9.740;2023-04-09T08:47:39;12.50;99.90
4964;DHT22;2497;47.410;9.740;2023-04-09T08:50:07;12.00;99.90
4964;DHT22;2497;47.410;9.740;2023-04-09T08:52:37;11.80;99.90
4964;DHT22;2497;47.410;9.740;2023-04-09T08:55:07;11.40;99.90
4964;DHT22;2497;47.410;9.740;2023-04-09T08:57:36;11.20;99.90
4964;DHT22;2497;47.410;9.740;2023-04-09T09:00:05;11.30;99.90
4964;DHT22;2497;47.410;9.740;2023-04-09T09:02:32;11.80;99.90
4964;DHT22;2497;47.410;9.740;2023-04-09T09:05:00;12.70;99.90
4964;DHT22;2497;47.410;9.740;2023-04-09T09:07:27;13.20;99.90
4964;DHT22;2497;47.410;9.740;2023-04-09T09:09:58;13.40;99.90
4964;DHT22;2497;47.410;9.740;2023-04-09T09:12:34;13.40;99.90
4964;DHT22;2497;47.410;9.740;2023-04-09T09:15:25;13.20;99.90
4964;DHT22;2497;47.410;9.740;2023-04-09T09:17:54;13.80;99.90
4964;DHT22;2497;47.410;9.740;2023-04-09T09:20:22;14.20;99.90
4964;DHT22;2497;47.410;9.740;2023-04-09T09:22:51;14.20;99.90
4964;DHT22;2497;47.410;9.740;2023-04-09T09:25:20;14.20;99.90
4964;DHT22;2497;47.410;9.740;2023-04-09T09:27:49;13.70;99.90
4964;DHT22;2497;47.410;9.740;2023-04-09T09:30:20;14.10;99.90
4964;DHT22;2497;47.410;9.740;2023-04-09T09:32:53;13.90;99.90
4964;DHT22;2497;47.410;9.740;2023-04-09T09:35:21;13.20;99.90
4964;DHT22;2497;47.410;9.740;2023-04-09T09:38:03;12.40;99.90
4964;DHT22;2497;47.410;9.740;2023-04-09T09:40:34;12.20;99.90
4964;DHT22;2497;47.410;9.740;2023-04-09T09:43:03;12.40;99.90
4964;DHT22;2497;47.410;9.740;2023-04-09T09:45:36;12.80;99.90
4964;DHT22;2497;47.410;9.740;2023-04-09T09:48:04;12.80;99.90
4964;DHT22;2497;47.410;9.740;2023-04-09T09:50:34;12.60;99.90
4964;DHT22;2497;47.410;9.740;2023-04-09T09:53:03;12.90;99.90
4964;DHT22;2497;47.410;9.740;2023-04-09T09:55:37;12.70;99.90
4964;DHT22;2497;47.410;9.740;2023-04-09T09:58:16;13.10;99.90
4964;DHT22;2497;47.410;9.740;2023-04-09T10:00:45;13.20;99.90
4964;DHT22;2497;47.410;9.740;2023-04-09T10:03:22;14.00;99.90
4964;DHT22;2497;47.410;9.740;2023-04-09T10:05:52;13.80;99.90
4964;DHT22;2497;47.410;9.740;2023-04-09T10:08:20;13.10;99.90
4964;DHT22;2497;47.410;9.740;2023-04-09T10:10:51;13.00;99.90
4964;DHT22;2497;47.410;9.740;2023-04-09T10:13:24;13.30;99.90
4964;DHT22;2497;47.410;9.740;2023-04-09T10:16:04;13.50;99.90
4964;DHT22;2497;47.410;9.740;2023-04-09T10:18:34;13.30;99.90
4964;DHT22;2497;47.410;9.740;2023-04-09T10:21:08;12.70;99.90
4964;DHT22;2497;47.410;9.740;2023-04-09T10:23:42;13.70;99.90
4964;DHT22;2497;47.410;9.740;2023-04-09T10:26:11;14.40;99.90
4964;DHT22;2497;47.410;9.740;2023-04-09T10:28:39;14.90;99.90
4964;DHT22;2497;47.410;9.740;2023-04-09T10:31:08;14.90;99.90
4964;DHT22;2497;47.410;9.740;2023-04-09T10:33:42;14.20;99.90
4964;DHT22;2497;47.410;9.740;2023-04-09T10:36:14;13.50;99.90
4964;DHT22;2497;47.410;9.740;2023-04-09T10:38:46;13.20;99.90
4964;DHT22;2497;47.410;9.740;2023-04-09T10:41:22;12.40;99.90
4964;DHT22;2497;47.410;9.740;2023-04-09T10:43:51;12.40;99.90
4964;DHT22;2497;47.410;9.740;2023-04-09T10:46:25;12.30;99.90
4964;DHT22;2497;47.410;9.740;2023-04-09T10:49:07;13.00;99.90
4964;DHT22;2497;47.410;9.740;2023-04-09T10:51:47;13.00;99.90
4964;DHT22;2497;47.410;9.740;2023-04-09T10:54:39;13.90;99.90
4964;DHT22;2497;47.410;9.740;2023-04-09T10:57:20;13.90;99.90
4964;DHT22;2497;47.410;9.740;2023-04-09T10:59:49;13.30;99.90
4964;DHT22;2497;47.410;9.740;2023-04-09T11:05:30;13.10;99.90
4964;DHT22;2497;47.410;9.740;2023-04-09T11:08:05;13.70;99.90
4964;DHT22;2497;47.410;9.740;2023-04-09T11:10:34;13.50;99.90
4964;DHT22;2497;47.410;9.740;2023-04-09T11:13:03;14.10;99.90
4964;DHT22;2497;47.410;9.740;2023-04-09T11:15:33;14.60;99.90
4964;DHT22;2497;47.410;9.740;2023-04-09T11:18:01;15.00;99.90
4964;DHT22;2497;47.410;9.740;2023-04-09T11:20:28;17.00;99.90
4964;DHT22;2497;47.410;9.740;2023-04-09T11:22:58;17.50;99.90
4964;DHT22;2497;47.410;9.740;2023-04-09T11:25:27;18.00;99.90
4964;DHT22;2497;47.410;9.740;2023-04-09T11:27:54;17.20;99.90
4964;DHT22;2497;47.410;9.740;2023-04-09T11:30:23;17.20;99.90
4964;DHT22;2497;47.410;9.740;2023-04-09T11:32:51;16.70;99.90
4964;DHT22;2497;47.410;9.740;2023-04-09T11:35:20;16.70;99.90
4964;DHT22;2497;47.410;9.740;2023-04-09T11:37:48;17.80;99.90
4964;DHT22;2497;47.410;9.740;2023-04-09T11:40:17;19.30;99.90
4964;DHT22;2497;47.410;9.740;2023-04-09T11:42:46;20.70;99.90
4964;DHT22;2497;47.410;9.740;2023-04-09T11:45:14;22.10;99.90
4964;DHT22;2497;47.410;9.740;2023-04-09T11:47:44;21.80;99.90
4964;DHT22;2497;47.410;9.740;2023-04-09T11:50:16;21.30;99.90
4964;DHT22;2497;47.410;9.740;2023-04-09T11:52:44;20.30;99.90
4964;DHT22;2497;47.410;9.740;2023-04-09T11:55:20;18.70;99.90
4964;DHT22;2497;47.410;9.740;2023-04-09T11:57:51;17.80;99.90
4964;DHT22;2497;47.410;9.740;2023-04-09T12:00:18;19.30;99.90
4964;DHT22;2497;47.410;9.740;2023-04-09T12:02:48;18.60;99.90
4964;DHT22;2497;47.410;9.740;2023-04-09T12:05:21;19.70;99.90
4964;DHT22;2497;47.410;9.740;2023-04-09T12:07:48;20.70;99.90
4964;DHT22;2497;47.410;9.740;2023-04-09T12:10:15;22.00;99.90
4964;DHT22;2497;47.410;9.740;2023-04-09T12:12:43;22.70;99.90
4964;DHT22;2497;47.410;9.740;2023-04-09T12:15:17;23.80;99.90
4964;DHT22;2497;47.410;9.740;2023-04-09T12:17:52;24.80;99.90
4964;DHT22;2497;47.410;9.740;2023-04-09T12:20:27;24.90;99.90
4964;DHT22;2497;47.410;9.740;2023-04-09T12:22:54;22.50;99.90
4964;DHT22;2497;47.410;9.740;2023-04-09T12:25:21;21.10;99.90
4964;DHT22;2497;47.410;9.740;2023-04-09T12:27:48;20.00;99.90
4964;DHT22;2497;47.410;9.740;2023-04-09T12:30:16;17.70;99.90
4964;DHT22;2497;47.410;9.740;2023-04-09T12:32:44;17.10;99.90
4964;DHT22;2497;47.410;9.740;2023-04-09T12:35:13;16.40;99.90
4964;DHT22;2497;47.410;9.740;2023-04-09T12:37:40;15.30;99.90
4964;DHT22;2497;47.410;9.740;2023-04-09T12:40:08;14.90;99.90
4964;DHT22;2497;47.410;9.740;2023-04-09T12:42:37;16.60;99.90
4964;DHT22;2497;47.410;9.740;2023-04-09T12:45:05;17.10;99.90
4964;DHT22;2497;47.410;9.740;2023-04-09T12:47:33;17.40;99.90
4964;DHT22;2497;47.410;9.740;2023-04-09T12:50:03;18.70;99.90
4964;DHT22;2497;47.410;9.740;2023-04-09T12:52:32;20.50;99.90
4964;DHT22;2497;47.410;9.740;2023-04-09T12:55:00;22.40;99.90
4964;DHT22;2497;47.410;9.740;2023-04-09T12:57:27;23.30;99.90
4964;DHT22;2497;47.410;9.740;2023-04-09T12:59:54;22.50;99.90
4964;DHT22;2497;47.410;9.740;2023-04-09T13:02:22;21.20;99.90
4964;DHT22;2497;47.410;9.740;2023-04-09T13:04:54;20.80;99.90
4964;DHT22;2497;47.410;9.740;2023-04-09T13:07:22;20.20;99.90
4964;DHT22;2497;47.410;9.740;2023-04-09T13:09:52;21.30;99.90
4964;DHT22;2497;47.410;9.740;2023-04-09T13:12:19;23.20;99.90
4964;DHT22;2497;47.410;9.740;2023-04-09T13:14:47;24.00;99.90
4964;DHT22;2497;47.410;9.740;2023-04-09T13:17:14;23.40;99.90
4964;DHT22;2497;47.410;9.740;2023-04-09T13:19:41;23.10;99.90
4964;DHT22;2497;47.410;9.740;2023-04-09T13:22:09;22.60;99.90
4964;DHT22;2497;47.410;9.740;2023-04-09T13:24:36;22.40;99.90
4964;DHT22;2497;47.410;9.740;2023-04-09T13:27:06;22.30;99.90
4964;DHT22;2497;47.410;9.740;2023-04-09T13:29:34;20.90;99.90
4964;DHT22;2497;47.410;9.740;2023-04-09T13:32:01;19.50;99.90
4964;DHT22;2497;47.410;9.740;2023-04-09T13:34:32;18.60;99.90
4964;DHT22;2497;47.410;9.740;2023-04-09T13:37:00;18.20;99.90
4964;DHT22;2497;47.410;9.740;2023-04-09T13:39:27;17.30;99.90
4964;DHT22;2497;47.410;9.740;2023-04-09T13:41:54;16.60;99.90
4964;DHT22;2497;47.410;9.740;2023-04-09T13:44:23;16.50;99.90
4964;DHT22;2497;47.410;9.740;2023-04-09T13:46:51;16.40;99.90
4964;DHT22;2497;47.410;9.740;2023-04-09T13:49:28;16.70;99.90
4964;DHT22;2497;47.410;9.740;2023-04-09T13:51:55;18.20;99.90
4964;DHT22;2497;47.410;9.740;2023-04-09T13:54:24;19.70;99.90
4964;DHT22;2497;47.410;9.740;2023-04-09T13:56:52;21.60;99.90
4964;DHT22;2497;47.410;9.740;2023-04-09T13:59:19;23.10;99.90
4964;DHT22;2497;47.410;9.740;2023-04-09T14:01:47;23.60;99.90
4964;DHT22;2497;47.410;9.740;2023-04-09T14:04:15;23.90;99.90
4964;DHT22;2497;47.410;9.740;2023-04-09T14:06:49;23.60;99.90
4964;DHT22;2497;47.410;9.740;2023-04-09T14:09:18;25.30;99.90
4964;DHT22;2497;47.410;9.740;2023-04-09T14:11:52;25.80;99.90
4964;DHT22;2497;47.410;9.740;2023-04-09T14:14:20;25.10;99.90
4964;DHT22;2497;47.410;9.740;2023-04-09T14:16:49;24.90;99.90
4964;DHT22;2497;47.410;9.740;2023-04-09T14:19:16;24.80;99.90
4964;DHT22;2497;47.410;9.740;2023-04-09T14:21:44;24.70;99.90
4964;DHT22;2497;47.410;9.740;2023-04-09T14:24:11;24.30;99.90
4964;DHT22;2497;47.410;9.740;2023-04-09T14:26:38;23.30;99.90
4964;DHT22;2497;47.410;9.740;2023-04-09T14:29:05;23.10;99.90
4964;DHT22;2497;47.410;9.740;2023-04-09T14:31:32;22.00;99.90
4964;DHT22;2497;47.410;9.740;2023-04-09T14:34:01;21.00;99.90
4964;DHT22;2497;47.410;9.740;2023-04-09T14:36:30;20.10;99.90
4964;DHT22;2497;47.410;9.740;2023-04-09T14:39:00;20.00;99.90
4964;DHT22;2497;47.410;9.740;2023-04-09T14:41:27;20.00;99.90
4964;DHT22;2497;47.410;9.740;2023-04-09T14:43:54;19.60;99.90
4964;DHT22;2497;47.410;9.740;2023-04-09T14:46:21;19.80;99.90
4964;DHT22;2497;47.410;9.740;2023-04-09T14:48:48;19.60;99.90
4964;DHT22;2497;47.410;9.740;2023-04-09T14:51:19;19.40;99.90
4964;DHT22;2497;47.410;9.740;2023-04-09T14:53:46;19.40;99.90
4964;DHT22;2497;47.410;9.740;2023-04-09T14:56:13;19.40;99.90
4964;DHT22;2497;47.410;9.740;2023-04-09T14:58:41;19.90;99.90
4964;DHT22;2497;47.410;9.740;2023-04-09T15:01:08;20.20;99.90
4964;DHT22;2497;47.410;9.740;2023-04-09T15:03:50;20.00;99.90
4964;DHT22;2497;47.410;9.740;2023-04-09T15:06:19;19.80;99.90
4964;DHT22;2497;47.410;9.740;2023-04-09T15:08:46;19.80;99.90
4964;DHT22;2497;47.410;9.740;2023-04-09T15:11:14;20.10;99.90
4964;DHT22;2497;47.410;9.740;2023-04-09T15:13:42;20.20;99.90
4964;DHT22;2497;47.410;9.740;2023-04-09T15:16:09;19.90;99.90
4964;DHT22;2497;47.410;9.740;2023-04-09T15:18:37;19.60;99.90
4964;DHT22;2497;47.410;9.740;2023-04-09T15:21:04;19.20;99.90
4964;DHT22;2497;47.410;9.740;2023-04-09T15:23:33;20.30;99.90
4964;DHT22;2497;47.410;9.740;2023-04-09T15:26:01;21.40;99.90
4964;DHT22;2497;47.410;9.740;2023-04-09T15:28:28;21.80;99.90
4964;DHT22;2497;47.410;9.740;2023-04-09T15:30:55;20.80;99.90
4964;DHT22;2497;47.410;9.740;2023-04-09T15:33:22;19.90;99.90
4964;DHT22;2497;47.410;9.740;2023-04-09T15:35:52;19.30;99.90
4964;DHT22;2497;47.410;9.740;2023-04-09T15:38:20;19.20;99.90
4964;DHT22;2497;47.410;9.740;2023-04-09T15:40:51;19.60;99.90
4964;DHT22;2497;47.410;9.740;2023-04-09T15:43:18;19.40;99.90
4964;DHT22;2497;47.410;9.740;2023-04-09T15:45:46;19.80;99.90
4964;DHT22;2497;47.410;9.740;2023-04-09T15:48:13;20.40;99.90
4964;DHT22;2497;47.410;9.740;2023-04-09T15:50:40;21.30;99.90
4964;DHT22;2497;47.410;9.740;2023-04-09T15:53:07;21.30;99.90
4964;DHT22;2497;47.410;9.740;2023-04-09T15:55:34;20.60;99.90
4964;DHT22;2497;47.410;9.740;2023-04-09T15:58:05;20.70;99.90
4964;DHT22;2497;47.410;9.740;2023-04-09T16:00:32;21.00;99.90
4964;DHT22;2497;47.410;9.740;2023-04-09T16:02:59;21.30;99.90
4964;DHT22;2497;47.410;9.740;2023-04-09T16:05:26;21.10;99.90
4964;DHT22;2497;47.410;9.740;2023-04-09T16:07:54;21.00;99.90
4964;DHT22;2497;47.410;9.740;2023-04-09T16:10:21;20.70;99.90
4964;DHT22;2497;47.410;9.740;2023-04-09T16:12:48;20.20;99.90
4964;DHT22;2497;47.410;9.740;2023-04-09T16:15:17;19.60;99.90
4964;DHT22;2497;47.410;9.740;2023-04-09T16:17:45;19.50;99.90
4964;DHT22;2497;47.410;9.740;2023-04-09T16:20:12;19.50;99.90
4964;DHT22;2497;47.410;9.740;2023-04-09T16:22:39;19.70;99.90
4964;DHT22;2497;47.410;9.740;2023-04-09T16:25:07;20.00;99.90
4964;DHT22;2497;47.410;9.740;2023-04-09T16:27:34;19.90;99.90
4964;DHT22;2497;47.410;9.740;2023-04-09T16:30:02;19.60;99.90
4964;DHT22;2497;47.410;9.740;2023-04-09T16:32:30;19.80;99.90
4964;DHT22;2497;47.410;9.740;2023-04-09T16:34:58;19.30;99.90
4964;DHT22;2497;47.410;9.740;2023-04-09T16:37:25;18.90;99.90
4964;DHT22;2497;47.410;9.740;2023-04-09T16:39:54;18.60;99.90
4964;DHT22;2497;47.410;9.740;2023-04-09T16:42:22;18.70;99.90
4964;DHT22;2497;47.410;9.740;2023-04-09T16:44:51;18.80;99.90
4964;DHT22;2497;47.410;9.740;2023-04-09T16:47:19;18.70;99.90